Time;durP1;ratioP1;P1;durP2;ratioP2;P2;SDS_P1;SDS_P2;PMS_P1;PMS_P2;Temp;Humidity;BMP_temperature;BMP_pressure;BME280_temperature;BME280_humidity;BME280_pressure;Samples;Min_cycle;Max_cycle;Signal;HPM_P1;HPM_P2
2021/06/01 00:07:42;;;;;;;4.03;3.57;;;4.90;99.90;;;4.88;100.00;95245.00;2268139;55;34349;-64
2021/06/01 00:13:24;;;;;;;5.77;4.23;;;4.80;99.90;;;4.88;100.00;95245.00;2233215;55;33854;-64
2021/06/01 00:16:12;;;;;;;5.60;4.07;;;4.80;99.90;;;4.78;100.00;95257.00;2301933;56;26321;-63
2021/06/01 00:18:59;;;;;;;4.60;4.10;;;4.70;99.90;;;4.66;100.00;95256.00;2250259;56;26611;-63
2021/06/01 00:21:46;;;;;;;4.63;4.13;;;4.80;99.90;;;4.81;100.00;95260.00;2204985;56;27253;-64
2021/06/01 00:24:34;;;;;;;4.77;3.80;;;4.70;99.90;;;4.68;100.00;95254.00;2192866;56;25644;-65
2021/06/01 00:27:20;;;;;;;4.97;4.37;;;4.60;99.90;;;4.59;100.00;95252.00;2189610;57;26490;-63
2021/06/01 00:30:12;;;;;;;5.40;4.00;;;4.40;99.90;;;4.38;100.00;95263.00;2251477;56;26846;-63
2021/06/01 00:32:59;;;;;;;5.20;4.23;;;4.30;99.90;;;4.35;100.00;95258.00;2233467;56;25959;-63
2021/06/01 00:35:45;;;;;;;6.67;4.53;;;4.30;99.90;;;4.33;100.00;95263.00;2222927;56;25763;-64
2021/06/01 00:38:32;;;;;;;6.83;4.23;;;4.30;99.90;;;4.21;100.00;95256.00;2188944;56;26435;-63
2021/06/01 00:41:18;;;;;;;6.07;3.97;;;4.20;99.90;;;4.21;100.00;95266.00;2201939;56;27315;-64
2021/06/01 00:44:06;;;;;;;6.43;4.30;;;4.10;99.90;;;4.13;100.00;95263.00;2288043;56;26740;-64
2021/06/01 00:46:53;;;;;;;5.77;4.20;;;4.10;99.90;;;4.04;100.00;95265.00;2203453;56;26594;-64
2021/06/01 00:49:39;;;;;;;5.77;4.00;;;4.20;99.90;;;4.17;100.00;95265.00;2186784;57;26616;-65
2021/06/01 00:55:24;;;;;;;4.67;4.17;;;4.10;99.90;;;4.11;100.00;95255.00;2281602;55;33961;-63
2021/06/01 01:01:19;;;;;;;7.13;4.60;;;4.10;99.90;;;4.02;100.00;95248.00;2245666;54;34160;-63
2021/06/01 01:04:05;;;;;;;5.57;4.40;;;4.00;99.90;;;3.96;100.00;95265.00;2164425;56;25912;-64
2021/06/01 01:07:03;;;;;;;4.80;4.30;;;3.90;99.90;;;3.87;100.00;95261.00;2199884;56;26765;-63
2021/06/01 01:09:50;;;;;;;4.83;4.00;;;3.90;99.90;;;3.86;100.00;95266.00;2215803;56;26887;-63
2021/06/01 01:12:46;;;;;;;4.80;4.00;;;3.90;99.90;;;3.84;100.00;95261.00;2272935;55;26432;-64
2021/06/01 01:15:35;;;;;;;5.97;4.50;;;3.80;99.90;;;3.77;100.00;95257.00;2245280;55;26851;-63
2021/06/01 01:18:23;;;;;;;6.80;4.57;;;3.60;99.90;;;3.63;100.00;95257.00;2221661;55;25562;-64
2021/06/01 01:27:27;;;;;;;6.77;4.43;;;3.50;99.90;;;3.60;100.00;95239.00;2392436;54;34246;-64
2021/06/01 01:30:17;;;;;;;5.97;4.40;;;3.50;99.90;;;3.43;100.00;95239.00;2384274;55;27030;-63
2021/06/01 01:33:20;;;;;;;5.60;4.77;;;3.50;99.90;;;3.42;100.00;95246.00;2385799;56;26803;-63
2021/06/01 01:36:12;;;;;;;6.23;4.40;;;3.40;99.90;;;3.39;100.00;95257.00;2171306;56;27090;-64
2021/06/01 01:38:59;;;;;;;4.60;4.03;;;3.40;99.90;;;3.41;100.00;95245.00;2237162;56;26809;-63
2021/06/01 01:41:47;;;;;;;5.93;4.20;;;3.50;99.90;;;3.45;100.00;95236.00;2384297;55;25681;-64
2021/06/01 01:44:36;;;;;;;5.50;4.20;;;3.50;99.90;;;3.48;100.00;95249.00;2166341;56;26689;-63
2021/06/01 01:53:24;;;;;;;5.30;3.90;;;3.30;99.90;;;3.35;100.00;95230.00;2199167;55;33769;-63
2021/06/01 01:56:10;;;;;;;6.03;4.10;;;3.30;99.90;;;3.31;100.00;95240.00;2173566;57;25693;-63
2021/06/01 01:58:57;;;;;;;4.83;4.33;;;3.30;99.90;;;3.20;100.00;95234.00;2178913;56;26693;-63
2021/06/01 02:01:47;;;;;;;5.07;3.90;;;3.20;99.90;;;3.18;100.00;95235.00;2178764;56;26107;-63
2021/06/01 02:04:34;;;;;;;5.23;4.10;;;3.10;99.90;;;3.08;100.00;95237.00;2183699;56;26873;-63
2021/06/01 02:07:20;;;;;;;6.87;4.13;;;3.20;99.90;;;3.29;100.00;95230.00;2284097;56;25553;-63
2021/06/01 02:13:07;;;;;;;4.73;4.17;;;3.10;99.90;;;3.11;100.00;95222.00;2290325;55;33970;-64
2021/06/01 02:15:55;;;;;;;5.90;4.50;;;3.00;99.90;;;2.96;100.00;95241.00;2168150;57;26579;-64
2021/06/01 02:18:42;;;;;;;5.53;4.40;;;3.00;99.90;;;2.94;100.00;95235.00;2235080;56;27195;-64
2021/06/01 02:21:37;;;;;;;4.10;3.70;;;3.00;99.90;;;2.93;100.00;95241.00;2175157;56;26390;-64
2021/06/01 02:24:29;;;;;;;6.47;4.57;;;3.00;99.90;;;2.95;100.00;95232.00;2197047;56;26696;-64
2021/06/01 02:30:20;;;;;;;5.97;4.10;;;2.90;99.90;;;2.91;100.00;95214.00;2261884;53;34356;-64
2021/06/01 02:33:08;;;;;;;5.30;4.37;;;2.80;99.90;;;2.71;100.00;95245.00;2286396;55;26627;-65
2021/06/01 02:35:57;;;;;;;5.63;4.40;;;2.60;99.90;;;2.63;100.00;95236.00;2254105;54;25768;-63
2021/06/01 02:38:44;;;;;;;6.00;3.80;;;2.60;99.90;;;2.59;100.00;95238.00;2242971;54;26696;-63
2021/06/01 02:41:31;;;;;;;5.17;3.87;;;2.50;99.90;;;2.53;100.00;95241.00;2299530;54;26838;-63
2021/06/01 02:44:18;;;;;;;7.03;4.07;;;2.60;99.90;;;2.62;100.00;95236.00;2263729;54;25562;-63
2021/06/01 02:47:07;;;;;;;4.70;3.97;;;2.60;99.90;;;2.55;100.00;95228.00;2282536;54;26238;-64
2021/06/01 02:49:55;;;;;;;6.53;4.07;;;2.60;99.90;;;2.54;100.00;95241.00;2275361;54;26623;-64
2021/06/01 02:52:44;;;;;;;7.70;4.73;;;2.50;99.90;;;2.56;100.00;95241.00;2244301;54;26695;-63
2021/06/01 02:55:31;;;;;;;5.57;4.30;;;2.40;99.90;;;2.46;100.00;95232.00;2269229;54;27574;-64
2021/06/01 02:58:19;;;;;;;4.57;3.80;;;2.50;99.90;;;2.54;100.00;95237.00;2239817;54;26569;-64
2021/06/01 03:01:06;;;;;;;4.97;3.83;;;2.50;99.90;;;2.48;100.00;95233.00;2260773;54;26328;-63
2021/06/01 03:03:53;;;;;;;4.67;4.07;;;2.60;99.90;;;2.54;100.00;95235.00;2293776;54;26829;-63
2021/06/01 03:06:44;;;;;;;4.93;4.20;;;2.50;99.90;;;2.46;100.00;95239.00;2257221;54;25767;-63
2021/06/01 03:09:30;;;;;;;5.37;4.20;;;2.50;99.90;;;2.42;100.00;95233.00;2267953;54;26387;-63
2021/06/01 03:12:24;;;;;;;6.53;4.03;;;2.40;99.90;;;2.47;100.00;95232.00;2244750;54;25834;-63
2021/06/01 03:15:13;;;;;;;7.60;4.43;;;2.40;99.90;;;2.43;100.00;95230.00;2247238;54;25980;-64
2021/06/01 03:18:00;;;;;;;4.63;4.00;;;2.30;99.90;;;2.30;100.00;95235.00;2245313;54;26597;-65
2021/06/01 03:20:47;;;;;;;5.57;4.43;;;2.20;99.90;;;2.22;100.00;95234.00;2246001;54;26201;-63
2021/06/01 03:23:33;;;;;;;5.07;3.70;;;2.20;99.90;;;2.23;100.00;95241.00;2256482;54;26669;-64
2021/06/01 03:29:17;;;;;;;5.47;4.00;;;2.30;99.90;;;2.42;100.00;95221.00;2375118;56;34208;-64
2021/06/01 03:32:04;;;;;;;6.17;4.30;;;2.30;99.90;;;2.29;100.00;95237.00;2159268;57;26737;-64
2021/06/01 03:34:51;;;;;;;4.47;3.87;;;2.30;99.90;;;2.22;100.00;95237.00;2166027;57;25952;-64
2021/06/01 03:37:37;;;;;;;6.13;4.10;;;2.20;99.90;;;2.20;100.00;95237.00;2142007;57;25976;-64
2021/06/01 03:40:24;;;;;;;6.03;4.47;;;2.10;99.90;;;2.22;100.00;95237.00;2169010;57;25615;-64
2021/06/01 03:43:11;;;;;;;5.67;4.10;;;2.20;99.90;;;2.22;100.00;95235.00;2230724;57;26995;-64
2021/06/01 03:48:54;;;;;;;4.43;4.00;;;2.30;99.90;;;2.46;100.00;95220.00;2163663;55;33343;-63
2021/06/01 03:54:38;;;;;;;6.37;4.30;;;2.30;99.90;;;2.49;100.00;95219.00;2413039;55;33122;-64
2021/06/01 04:00:23;;;;;;;4.73;3.90;;;2.20;99.90;;;2.37;100.00;95220.00;2417139;54;33051;-63
2021/06/01 04:03:10;;;;;;;4.93;4.20;;;2.20;99.90;;;2.36;100.00;95236.00;2358882;55;26362;-64
2021/06/01 04:05:57;;;;;;;5.10;4.13;;;2.30;99.90;;;2.47;100.00;95237.00;2237216;56;25783;-64
2021/06/01 04:08:43;;;;;;;6.27;3.93;;;2.30;99.90;;;2.51;100.00;95232.00;2168965;56;26902;-63
2021/06/01 04:11:30;;;;;;;4.73;4.03;;;2.40;99.90;;;2.56;100.00;95236.00;2162759;57;27078;-64
2021/06/01 04:17:15;;;;;;;4.83;4.00;;;2.60;99.90;;;2.92;100.00;95216.00;2446819;54;33008;-64
2021/06/01 04:20:03;;;;;;;4.77;4.07;;;2.70;99.90;;;2.88;100.00;95238.00;2236191;56;26570;-64
2021/06/01 04:22:50;;;;;;;4.50;3.70;;;2.70;99.90;;;2.98;100.00;95234.00;2423329;55;25714;-64
2021/06/01 04:25:36;;;;;;;4.33;3.90;;;2.80;99.90;;;3.04;100.00;95231.00;2283530;55;26854;-64
2021/06/01 04:28:22;;;;;;;4.23;3.63;;;2.90;99.90;;;3.20;100.00;95236.00;2215562;55;26547;-64
2021/06/01 04:31:09;;;;;;;5.40;4.20;;;3.00;99.90;;;3.33;100.00;95232.00;2437589;55;25930;-64
2021/06/01 04:33:56;;;;;;;3.90;3.50;;;3.20;99.90;;;3.48;100.00;95241.00;2205868;55;25665;-64
2021/06/01 04:36:42;;;;;;;4.13;3.63;;;3.30;99.90;;;3.62;100.00;95243.00;2395240;54;26168;-64
2021/06/01 04:42:26;;;;;;;5.13;4.40;;;3.60;99.90;;;4.00;100.00;95221.00;2218770;55;34194;-64
2021/06/01 04:45:15;;;;;;;6.00;4.03;;;3.70;99.90;;;4.08;100.00;95235.00;2284183;56;26868;-64
2021/06/01 04:50:57;;;;;;;6.00;4.20;;;4.00;99.90;;;4.60;100.00;95223.00;2488076;52;33797;-63
2021/06/01 04:56:44;;;;;;;5.43;3.60;;;5.50;99.90;;;9.93;100.00;95190.00;2197216;55;33757;-64
2021/06/01 04:59:30;;;;;;;3.67;3.17;;;7.10;99.90;;;13.07;100.00;95184.00;2171468;58;26696;-65
2021/06/01 05:02:16;;;;;;;4.77;2.80;;;8.40;99.90;;;13.78;100.00;95177.00;2396332;55;27179;-65
2021/06/01 05:07:59;;;;;;;3.00;2.70;;;9.90;99.90;;;15.92;100.00;95169.00;2196837;55;34032;-64
2021/06/01 05:10:46;;;;;;;3.20;2.90;;;9.90;99.90;;;14.78;100.00;95167.00;2191241;57;26619;-64
2021/06/01 05:13:32;;;;;;;3.33;2.80;;;9.30;99.90;;;15.03;100.00;95166.00;2182968;56;26804;-64
2021/06/01 05:16:19;;;;;;;3.53;2.90;;;9.90;99.90;;;16.18;100.00;95164.00;2222702;56;26173;-64
2021/06/01 05:19:05;;;;;;;4.30;2.77;;;10.60;99.90;;;17.12;96.70;95156.00;2180456;57;26739;-64
2021/06/01 05:21:52;;;;;;;4.20;2.67;;;11.40;99.90;;;18.33;84.06;95158.00;2168883;55;26221;-64
2021/06/01 05:24:38;;;;;;;3.47;2.53;;;12.80;99.90;;;19.84;73.04;95153.00;2172593;56;26861;-64
2021/06/01 05:27:25;;;;;;;3.57;2.73;;;12.80;99.90;;;19.81;69.73;95154.00;2138326;57;27252;-65
2021/06/01 05:30:17;;;;;;;3.30;2.80;;;13.40;99.90;;;20.40;67.11;95153.00;2183953;57;26176;-65
2021/06/01 05:33:15;;;;;;;3.33;2.83;;;13.70;99.90;;;21.23;59.69;95148.00;2192865;57;26686;-65
2021/06/01 05:36:01;;;;;;;3.43;2.70;;;15.00;99.90;;;21.57;56.78;95145.00;2157313;57;26839;-65
2021/06/01 05:38:48;;;;;;;4.35;2.70;;;15.70;99.90;;;20.72;53.76;95146.00;2184136;57;27389;-65
2021/06/01 05:41:34;;;;;;;3.22;2.83;;;14.40;99.90;;;20.48;57.37;95153.00;2154751;57;26228;-64
2021/06/01 05:44:21;;;;;;;2.90;2.60;;;15.90;99.90;;;22.10;50.10;95152.00;2151648;57;26824;-63
2021/06/01 05:47:07;;;;;;;2.85;2.50;;;16.70;99.90;;;22.83;47.65;95149.00;2227412;56;26142;-63
2021/06/01 05:49:53;;;;;;;2.50;2.30;;;15.70;99.90;;;21.55;49.85;95144.00;2172227;56;26859;-63
2021/06/01 05:52:40;;;;;;;3.67;2.40;;;15.60;99.90;;;22.59;48.27;95153.00;2187410;57;26757;-64
2021/06/01 05:55:27;;;;;;;2.80;2.55;;;17.40;99.90;;;24.01;41.91;95147.00;2247921;56;26653;-64
2021/06/01 05:58:14;;;;;;;2.58;2.35;;;16.50;99.90;;;22.84;47.03;95153.00;2224379;56;27489;-63
2021/06/01 06:01:00;;;;;;;3.97;2.45;;;17.70;99.90;;;23.27;44.67;95150.00;2210591;56;27263;-63
2021/06/01 06:03:47;;;;;;;4.45;2.50;;;16.20;99.90;;;21.86;49.26;95150.00;2223952;56;26731;-64
2021/06/01 06:06:33;;;;;;;2.92;2.62;;;16.70;99.90;;;22.26;47.90;95138.00;2179853;56;26834;-63
2021/06/01 06:09:19;;;;;;;2.58;2.35;;;16.80;99.90;;;23.47;46.13;95136.00;2216108;56;26754;-64
2021/06/01 06:12:09;;;;;;;2.83;2.50;;;15.70;99.90;;;21.92;47.14;95142.00;2216379;56;26746;-64
2021/06/01 06:18:05;;;;;;;2.60;2.40;;;16.30;99.90;;;22.95;45.18;95124.00;2308949;55;33244;-64
2021/06/01 06:20:52;;;;;;;2.80;2.50;;;17.00;99.90;;;23.54;43.52;95129.00;2140567;57;27357;-63
2021/06/01 06:23:40;;;;;;;4.10;2.70;;;17.70;99.90;;;23.31;42.92;95129.00;2134521;58;26703;-64
2021/06/01 06:26:27;;;;;;;2.80;2.17;;;18.80;99.90;;;25.12;40.21;95127.00;2127513;58;26789;-64
2021/06/01 06:29:13;;;;;;;3.10;2.58;;;19.50;99.90;;;25.40;40.33;95122.00;2128401;58;26140;-64
2021/06/01 06:34:56;;;;;;;3.85;2.20;;;18.80;99.90;;;25.84;39.60;95117.00;2405553;55;34375;-64
2021/06/01 06:40:40;;;;;;;3.65;2.25;;;20.10;99.90;;;27.02;36.30;95117.00;2230764;55;33968;-64
2021/06/01 06:43:27;;;;;;;4.25;2.60;;;21.10;99.90;;;26.81;37.44;95121.00;2213199;55;26230;-64
2021/06/01 06:46:16;;;;;;;2.35;1.98;;;20.40;99.90;;;26.03;36.82;95126.00;2236097;55;26807;-64
2021/06/01 06:49:04;;;;;;;2.30;2.10;;;20.70;99.90;;;26.75;35.57;95117.00;2192074;57;26665;-64
2021/06/01 06:51:50;;;;;;;3.20;2.00;;;20.40;99.90;;;23.99;37.29;95121.00;2249180;55;26248;-64
2021/06/01 06:54:38;;;;;;;2.95;2.35;;;18.40;99.90;;;21.92;43.28;95128.00;2181563;56;26730;-64
2021/06/01 06:57:24;;;;;;;2.85;2.00;;;18.00;99.90;;;21.44;43.13;95124.00;2207599;56;26776;-63
2021/06/01 07:00:15;;;;;;;4.70;2.30;;;19.40;99.90;;;21.26;41.34;95126.00;2287399;56;27262;-64
2021/06/01 07:03:01;;;;;;;2.35;2.10;;;19.60;99.90;;;22.86;39.74;95129.00;2195547;56;26699;-63
2021/06/01 07:05:48;;;;;;;4.78;2.20;;;20.70;99.90;;;24.17;39.59;95122.00;2206625;56;26226;-63
2021/06/01 07:08:35;;;;;;;2.20;2.00;;;21.00;99.90;;;24.19;36.15;95115.00;2205498;56;26799;-63
2021/06/01 07:11:23;;;;;;;3.35;2.53;;;20.00;99.90;;;22.93;39.39;95125.00;2253726;55;26227;-63
2021/06/01 07:17:25;;;;;;;2.95;2.15;;;19.00;99.90;;;23.18;38.87;95109.00;2446139;53;34272;-64
2021/06/01 07:20:14;;;;;;;3.22;2.35;;;20.20;99.90;;;24.02;38.77;95115.00;2214002;55;26775;-64
2021/06/01 07:23:02;;;;;;;2.40;2.20;;;20.60;99.80;;;24.48;35.45;95117.00;2257347;55;26638;-63
2021/06/01 07:25:48;;;;;;;3.40;2.10;;;20.80;99.30;;;24.70;34.79;95117.00;2239890;56;27297;-64
2021/06/01 07:28:35;;;;;;;2.60;2.00;;;21.40;98.30;;;23.54;37.04;95115.00;2239653;56;26562;-65
2021/06/01 07:34:19;;;;;;;3.45;2.40;;;20.20;98.90;;;22.60;39.68;95107.00;2515279;53;34422;-64
2021/06/01 07:37:05;;;;;;;2.40;2.20;;;19.40;98.50;;;22.94;36.63;95099.00;2283659;54;26955;-64
2021/06/01 07:39:52;;;;;;;2.42;2.20;;;21.30;98.00;;;24.61;35.81;95107.00;2468408;54;27095;-63
2021/06/01 07:42:38;;;;;;;4.28;2.10;;;19.80;98.30;;;22.81;37.76;95111.00;2253017;54;27481;-64
2021/06/01 07:45:26;;;;;;;2.40;2.10;;;19.50;98.80;;;22.36;38.42;95105.00;2496669;53;26766;-64
2021/06/01 07:48:13;;;;;;;2.42;2.22;;;19.20;98.60;;;21.83;39.01;95116.00;2307281;54;27060;-64
2021/06/01 07:50:59;;;;;;;3.55;2.33;;;19.20;98.90;;;22.47;38.62;95109.00;2242011;54;26620;-63
2021/06/01 07:56:42;;;;;;;3.55;2.10;;;18.80;99.40;;;21.18;39.72;95112.00;2279781;56;33453;-64
2021/06/01 07:59:29;;;;;;;3.75;2.10;;;18.90;99.20;;;21.85;39.98;95116.00;2160702;57;26723;-64
2021/06/01 08:02:16;;;;;;;2.50;2.25;;;19.30;99.90;;;22.39;40.33;95110.00;2353888;56;27035;-64
2021/06/01 08:05:02;;;;;;;2.85;2.08;;;19.70;97.90;;;23.15;37.25;95119.00;2319371;57;27031;-64
2021/06/01 08:07:50;;;;;;;2.90;2.17;;;21.80;94.60;;;23.43;34.88;95117.00;2196264;57;27083;-64
2021/06/01 08:10:37;;;;;;;3.33;2.20;;;19.90;97.30;;;22.11;38.68;95110.00;2163462;57;26187;-64
2021/06/01 08:13:25;;;;;;;3.25;2.25;;;19.80;94.80;;;22.29;34.99;95116.00;2163678;57;26758;-64
2021/06/01 08:16:12;;;;;;;2.47;2.00;;;20.60;95.20;;;23.80;34.32;95111.00;2166934;57;26639;-64
2021/06/01 08:19:04;;;;;;;2.55;2.00;;;21.00;94.70;;;23.42;35.01;95107.00;2217431;57;26743;-63
2021/06/01 08:21:52;;;;;;;3.03;1.92;;;19.90;95.80;;;22.48;36.58;95103.00;2169400;57;27049;-64
2021/06/01 08:24:39;;;;;;;2.58;1.77;;;19.80;95.10;;;22.53;35.63;95101.00;2185149;58;26581;-64
2021/06/01 08:27:27;;;;;;;2.45;1.90;;;20.30;95.30;;;23.16;35.34;95100.00;2402129;56;27432;-63
2021/06/01 08:30:16;;;;;;;7.22;2.03;;;22.50;94.20;;;25.87;32.18;95102.00;2185858;58;26945;-64
2021/06/01 08:33:03;;;;;;;2.75;1.90;;;20.50;95.80;;;23.05;36.65;95091.00;2157116;56;26723;-64
2021/06/01 08:35:50;;;;;;;2.90;1.90;;;20.10;94.80;;;22.41;36.23;95103.00;2247245;56;26769;-64
2021/06/01 08:38:36;;;;;;;3.33;2.00;;;21.60;91.30;;;23.96;31.34;95103.00;2361572;56;26919;-64
2021/06/01 08:41:23;;;;;;;3.70;2.15;;;20.70;94.20;;;23.17;35.41;95105.00;2142257;57;26755;-64
2021/06/01 08:44:13;;;;;;;2.58;2.20;;;20.30;93.10;;;22.60;34.49;95103.00;2351448;57;26780;-64
2021/06/01 08:47:00;;;;;;;2.15;1.95;;;20.10;93.20;;;22.18;34.76;95101.00;2357695;57;27364;-65
2021/06/01 08:49:48;;;;;;;2.00;1.80;;;20.10;95.80;;;22.48;38.06;95097.00;2350501;57;26752;-64
2021/06/01 08:52:35;;;;;;;2.87;2.25;;;20.30;93.60;;;23.66;33.88;95095.00;2143836;58;27287;-64
2021/06/01 08:55:21;;;;;;;2.92;2.30;;;20.20;94.30;;;22.57;36.29;95097.00;2149310;57;26194;-64
2021/06/01 08:58:14;;;;;;;2.83;1.77;;;20.10;94.90;;;22.65;37.01;95093.00;2346695;57;27321;-65
2021/06/01 09:01:01;;;;;;;2.97;2.20;;;20.60;94.10;;;23.15;35.67;95101.00;2345504;57;26789;-63
2021/06/01 09:03:53;;;;;;;2.33;1.90;;;21.20;92.60;;;23.72;33.17;95093.00;2138776;58;26717;-64
2021/06/01 09:09:46;;;;;;;2.47;1.80;;;22.80;90.20;;;27.00;29.22;95090.00;2290228;53;33552;-64
2021/06/01 09:12:43;;;;;;;2.85;1.48;;;25.40;83.20;;;27.57;26.71;95089.00;2243796;55;26771;-64
2021/06/01 09:15:45;;;;;;;3.65;1.90;;;24.80;86.30;;;28.23;27.33;95090.00;2310164;54;26677;-64
2021/06/01 09:21:42;;;;;;;2.62;1.90;;;27.00;80.10;;;29.50;24.94;95083.00;2318137;54;26835;-64
2021/06/01 09:24:28;;;;;;;3.90;1.87;;;26.40;79.60;;;29.74;24.34;95079.00;2259246;54;26134;-64
2021/06/01 09:27:23;;;;;;;3.58;2.10;;;27.60;77.60;;;28.26;26.37;95068.00;2221832;55;26925;-66
2021/06/01 09:30:30;;;;;;;3.33;2.05;;;26.40;80.00;;;27.55;28.10;95073.00;2220335;55;26149;-64
2021/06/01 09:33:30;;;;;;;2.50;2.30;;;25.80;79.10;;;27.20;27.82;95062.00;2230655;55;27281;-64
2021/06/01 09:36:23;;;;;;;2.97;1.90;;;23.60;90.20;;;25.65;33.44;95062.00;2218857;55;26727;-64
2021/06/01 09:39:22;;;;;;;2.17;1.98;;;24.10;84.20;;;26.86;29.14;95056.00;2307572;55;26710;-64
2021/06/01 09:42:26;;;;;;;2.55;2.10;;;22.10;91.20;;;23.66;36.54;95052.00;2286601;55;26219;-64
2021/06/01 09:45:17;;;;;;;2.75;1.87;;;25.00;85.70;;;27.46;30.09;95052.00;2226369;54;26895;-63
2021/06/01 09:48:08;;;;;;;2.20;2.00;;;22.50;87.50;;;24.05;33.50;95054.00;2210388;55;26582;-63
2021/06/01 09:51:06;;;;;;;3.65;2.10;;;22.90;88.60;;;26.03;31.61;95055.00;2208179;54;26811;-63
2021/06/01 09:53:55;;;;;;;3.47;1.98;;;25.50;79.80;;;26.20;29.76;95047.00;2268605;54;27237;-64
2021/06/01 09:56:42;;;;;;;3.00;2.00;;;22.20;87.10;;;23.37;34.35;95046.00;2240686;54;27440;-64
2021/06/01 09:59:28;;;;;;;2.10;1.90;;;22.20;90.40;;;24.61;34.87;95040.00;2218064;54;27156;-64
2021/06/01 10:05:33;;;;;;;4.97;1.80;;;25.50;81.80;;;29.23;25.18;95039.00;2255267;55;33280;-64
2021/06/01 10:08:21;;;;;;;2.00;1.75;;;24.80;80.90;;;26.42;28.92;95037.00;2158833;56;26898;-65
2021/06/01 10:11:12;;;;;;;3.20;1.83;;;26.90;79.60;;;29.74;26.65;95036.00;2361161;56;26243;-65
2021/06/01 10:14:00;;;;;;;2.87;2.00;;;28.80;73.10;;;31.24;22.83;95047.00;2374608;55;25511;-65
2021/06/01 10:16:47;;;;;;;2.12;1.92;;;27.10;75.00;;;29.65;24.81;95035.00;2186689;55;27393;-65
2021/06/01 10:19:33;;;;;;;2.47;1.95;;;25.90;74.20;;;27.92;25.34;95026.00;2186565;55;27225;-65
2021/06/01 10:22:20;;;;;;;2.05;1.87;;;26.10;78.40;;;27.31;28.39;95028.00;2200400;55;26739;-65
2021/06/01 10:25:10;;;;;;;11.65;1.92;;;25.50;87.50;;;27.39;33.49;95025.00;2433312;55;25753;-65
2021/06/01 10:27:58;;;;;;;5.57;1.77;;;24.20;86.40;;;25.64;34.26;95025.00;2432821;55;26700;-65
2021/06/01 10:30:45;;;;;;;2.85;2.00;;;23.50;82.00;;;25.42;31.00;95022.00;2353287;55;26783;-64
2021/06/01 10:33:40;;;;;;;3.85;1.90;;;23.10;86.40;;;24.96;33.74;95014.00;2212037;55;26289;-64
2021/06/01 10:52:32;;;;;;;2.95;2.15;;;24.10;81.90;;;25.77;31.27;94997.00;2368842;56;26707;-65
2021/06/01 10:58:16;;;;;;;2.40;2.08;;;23.40;89.00;;;25.18;36.45;94989.00;2205851;55;34287;-65
2021/06/01 11:04:24;;;;;;;2.17;1.98;;;26.70;79.70;;;28.83;28.03;94980.00;2389879;55;33709;-64
2021/06/01 11:07:24;;;;;;;2.62;2.22;;;24.80;85.10;;;26.06;33.68;94994.00;2147249;57;26755;-64
2021/06/01 11:10:10;;;;;;;2.28;2.08;;;24.10;83.50;;;25.21;33.29;94977.00;2355599;57;26654;-64
2021/06/01 11:12:57;;;;;;;3.87;2.17;;;23.20;84.10;;;24.13;33.83;94982.00;2284806;56;26384;-64
2021/06/01 11:15:52;;;;;;;2.95;2.12;;;23.00;87.20;;;24.58;35.20;94981.00;2320409;56;26708;-64
2021/06/01 11:18:48;;;;;;;3.05;2.03;;;23.60;91.50;;;24.85;40.28;94991.00;2202969;56;27162;-65
2021/06/01 11:21:36;;;;;;;4.43;1.90;;;23.40;85.00;;;25.07;34.30;94977.00;2163406;56;26976;-65
2021/06/01 11:36:37;;;;;;;1.90;1.60;;;24.60;85.00;;;25.49;36.60;94958.00;2376817;55;33893;-64
2021/06/01 11:45:52;;;;;;;3.28;1.83;;;28.00;73.80;;;29.45;25.75;94952.00;2200359;55;26768;-61
2021/06/01 11:54:50;;;;;;;3.55;2.10;;;25.20;83.60;;;26.63;32.71;94936.00;2171017;55;34501;-64
2021/06/01 12:22:17;;;;;;;2.85;2.00;;;23.50;84.90;;;25.82;33.93;94922.00;2320311;55;34166;-65
2021/06/01 12:28:17;;;;;;;1.77;1.65;;;23.50;85.50;;;24.30;38.82;94923.00;2219987;54;35219;-64
2021/06/01 12:31:04;;;;;;;4.57;2.12;;;23.00;85.60;;;23.66;36.90;94918.00;2401802;55;26897;-65
2021/06/01 12:34:00;;;;;;;2.83;2.10;;;22.70;84.40;;;23.42;36.08;94914.00;2317980;55;26706;-63
2021/06/01 12:37:16;;;;;;;3.53;2.00;;;22.60;86.30;;;23.47;37.52;94910.00;2181515;56;26964;-63
2021/06/01 12:43:25;;;;;;;4.15;2.42;;;22.20;84.80;;;23.00;36.63;94908.00;2359212;55;33893;-64
2021/06/01 12:46:21;;;;;;;3.15;2.03;;;22.00;86.30;;;22.91;37.46;94907.00;2298480;57;26778;-63
2021/06/01 13:05:33;;;;;;;4.53;1.83;;;21.90;85.80;;;22.77;37.22;94907.00;2117586;57;27196;-64
2021/06/01 13:14:43;;;;;;;4.22;1.95;;;22.80;90.60;;;24.08;42.64;94904.00;2386781;56;27258;-63
2021/06/01 13:24:21;;;;;;;2.03;1.83;;;22.60;88.20;;;23.37;39.43;94890.00;2381055;56;27475;-64
2021/06/01 13:30:19;;;;;;;2.40;1.70;;;22.30;87.40;;;23.03;39.33;94886.00;2166427;56;27731;-65
2021/06/01 13:39:34;;;;;;;2.42;1.90;;;22.40;84.30;;;23.18;37.55;94878.00;2242450;54;33572;-64
2021/06/01 13:55:08;;;;;;;4.65;2.00;;;21.80;81.00;;;22.31;34.96;94860.00;2452104;55;26806;-64
2021/06/01 13:58:25;;;;;;;4.12;1.58;;;21.60;85.80;;;22.23;39.06;94865.00;2455707;55;26728;-64
2021/06/01 14:01:17;;;;;;;2.08;1.70;;;22.00;81.80;;;22.83;35.06;94863.00;2455275;55;26581;-64
2021/06/01 14:10:53;;;;;;;2.78;1.90;;;21.60;82.50;;;22.20;35.99;94861.00;2379742;55;27401;-64
2021/06/01 14:20:04;;;;;;;2.25;1.70;;;21.80;89.50;;;22.58;40.80;94848.00;2385396;55;26763;-63
2021/06/01 14:38:22;;;;;;;1.75;1.62;;;21.30;86.50;;;21.92;36.31;94850.00;2239934;55;33640;-63
2021/06/01 15:09:36;;;;;;;2.45;1.90;;;21.10;81.40;;;21.66;35.04;94835.00;2204533;55;33790;-64
2021/06/01 15:28:37;;;;;;;4.30;1.60;;;21.00;82.80;;;21.49;37.63;94816.00;2380723;55;34232;-64
2021/06/01 15:50:08;;;;;;;2.33;1.85;;;20.30;86.40;;;20.78;40.31;94808.00;2180824;56;27256;-64
2021/06/01 16:15:23;;;;;;;2.80;2.17;;;20.40;89.60;;;21.10;42.97;94791.00;2400049;55;34430;-66
2021/06/01 16:21:43;;;;;;;2.25;1.83;;;20.20;87.10;;;20.62;41.19;94797.00;2172637;57;26236;-64
2021/06/01 16:43:32;;;;;;;1.98;1.80;;;19.90;87.70;;;20.32;41.89;94802.00;2156843;58;26714;-63
2021/06/01 17:04:47;;;;;;;2.70;1.77;;;19.50;90.70;;;19.93;46.32;94806.00;2404906;55;27191;-64
2021/06/01 17:07:58;;;;;;;8.20;1.90;;;19.50;90.10;;;19.88;45.18;94811.00;2185865;55;27204;-64
2021/06/01 17:11:04;;;;;;;4.55;1.75;;;19.60;90.20;;;20.01;45.30;94813.00;2278952;55;26238;-64
2021/06/01 17:13:54;;;;;;;2.83;1.87;;;19.30;89.20;;;19.77;44.12;94802.00;2245496;55;26661;-64
2021/06/01 17:16:44;;;;;;;2.20;1.98;;;19.30;88.90;;;19.73;43.66;94810.00;2248545;55;26693;-63
2021/06/01 17:20:05;;;;;;;2.67;1.80;;;19.20;90.00;;;19.64;44.98;94805.00;2211690;57;26181;-63
2021/06/01 17:32:22;;;;;;;3.87;1.70;;;19.00;90.20;;;19.46;45.90;94802.00;2439423;54;26666;-64
2021/06/01 17:35:12;;;;;;;2.05;1.70;;;18.90;90.90;;;19.34;47.82;94808.00;2481334;53;26733;-64
2021/06/01 17:37:58;;;;;;;2.35;1.83;;;18.90;90.60;;;19.32;46.92;94810.00;2300132;53;27625;-64
2021/06/01 17:40:45;;;;;;;2.33;1.80;;;18.90;90.90;;;19.25;47.77;94813.00;2316556;53;26718;-64
2021/06/01 17:46:36;;;;;;;2.33;1.90;;;18.60;91.00;;;19.10;47.87;94809.00;2318255;55;33823;-64
2021/06/01 17:49:26;;;;;;;6.78;2.87;;;18.70;91.20;;;19.04;48.94;94804.00;2408865;55;26760;-64
2021/06/01 17:52:13;;;;;;;3.28;2.42;;;18.50;91.60;;;18.88;50.08;94805.00;2186632;56;27134;-63
2021/06/01 18:00:53;;;;;;;9.35;2.05;;;18.10;92.10;;;18.66;52.50;94798.00;2472807;53;33545;-64
2021/06/01 18:03:44;;;;;;;2.20;1.80;;;18.20;92.40;;;18.54;54.12;94806.00;2469192;53;26797;-64
2021/06/01 18:06:36;;;;;;;3.05;1.90;;;18.10;93.00;;;18.43;56.23;94803.00;2401534;54;27157;-64
2021/06/01 18:09:43;;;;;;;2.28;1.75;;;17.90;92.00;;;18.30;53.50;94805.00;2329538;55;26637;-63
2021/06/01 18:35:39;;;;;;;4.60;1.80;;;17.10;93.30;;;17.46;62.83;94815.00;2394454;56;26723;-64
2021/06/01 18:41:47;;;;;;;3.62;2.00;;;16.80;94.40;;;17.01;70.39;94818.00;2185674;58;26739;-64
2021/06/01 19:00:21;;;;;;;4.22;2.08;;;16.10;95.50;;;16.27;82.52;94829.00;2171240;56;27139;-63
2021/06/01 19:06:53;;;;;;;2.08;1.70;;;15.90;95.30;;;16.06;82.00;94837.00;2216987;56;26566;-64
2021/06/01 19:22:25;;;;;;;6.80;2.00;;;15.50;95.80;;;15.85;80.01;94843.00;2434585;54;33678;-64